createdAt,value
2023-01-02T00:01:33.992Z,95471.47
2023-01-02T00:04:00.737Z,95468.81
2023-01-02T00:06:27.488Z,95467.84
2023-01-02T00:08:54.123Z,95462.78
2023-01-02T00:11:20.795Z,95462.13
2023-01-02T00:13:47.410Z,95463.69
2023-01-02T00:16:14.101Z,95453.66
2023-01-02T00:18:40.779Z,95454.84
2023-01-02T00:21:07.824Z,95453.06
2023-01-02T00:23:35.583Z,95455.13
2023-01-02T00:26:02.458Z,95448.13
2023-01-02T00:28:29.585Z,95461.53
2023-01-02T00:30:56.350Z,95453.84
2023-01-02T00:33:23.130Z,95452.63
2023-01-02T00:35:49.736Z,95452.06
2023-01-02T00:38:18.265Z,95459.59
2023-01-02T00:40:44.964Z,95451.50
2023-01-02T00:43:11.547Z,95454.53
2023-01-02T00:45:38.214Z,95458.59
2023-01-02T00:48:04.876Z,95448.22
2023-01-02T00:50:31.510Z,95460.22
2023-01-02T00:52:58.151Z,95463.59
2023-01-02T00:55:24.689Z,95467.41
2023-01-02T00:57:51.325Z,95460.94
2023-01-02T01:00:23.663Z,95471.94
2023-01-02T01:02:54.516Z,95464.66
2023-01-02T01:05:21.151Z,95461.72
2023-01-02T01:07:47.744Z,95465.88
2023-01-02T01:10:14.406Z,95462.72
2023-01-02T01:12:41.028Z,95463.78
2023-01-02T01:15:09.153Z,95445.94
2023-01-02T01:17:35.774Z,95447.59
2023-01-02T01:20:02.600Z,95449.78
2023-01-02T01:22:29.296Z,95453.63
2023-01-02T01:24:56.116Z,95448.97
2023-01-02T01:27:22.843Z,95453.53
2023-01-02T01:29:49.508Z,95454.22
2023-01-02T01:32:16.139Z,95459.75
2023-01-02T01:34:43.551Z,95445.75
2023-01-02T01:37:10.294Z,95451.97
2023-01-02T01:39:36.886Z,95444.66
2023-01-02T01:42:03.619Z,95445.84
2023-01-02T01:44:47.286Z,95443.94
2023-01-02T01:47:33.170Z,95443.06
2023-01-02T01:50:15.006Z,95440.72
2023-01-02T01:52:47.838Z,95433.72
2023-01-02T01:55:24.151Z,95440.13
2023-01-02T01:57:58.747Z,95434.91
2023-01-02T02:00:25.560Z,95430.09
2023-01-02T02:02:57.486Z,95428.09
2023-01-02T02:05:33.782Z,95427.41
2023-01-02T02:08:18.107Z,95425.44
2023-01-02T02:10:45.262Z,95426.31
2023-01-02T02:13:12.247Z,95425.44
2023-01-02T02:16:00.905Z,95426.63
2023-01-02T02:18:59.081Z,95426.00
2023-01-02T02:21:34.461Z,95429.66
2023-01-02T02:24:12.844Z,95429.53
2023-01-02T02:27:07.454Z,95438.00
2023-01-02T02:29:58.762Z,95431.22
2023-01-02T02:32:46.696Z,95438.13
2023-01-02T02:35:32.288Z,95438.13
2023-01-02T02:38:35.690Z,95420.97
2023-01-02T02:41:33.276Z,95427.75
2023-01-02T02:44:23.462Z,95426.78
2023-01-02T02:47:16.299Z,95430.34
2023-01-02T02:50:03.405Z,95425.41
2023-01-02T02:52:36.123Z,95426.41
2023-01-02T02:55:08.628Z,95417.75
2023-01-02T02:57:48.088Z,95411.44
2023-01-02T03:00:21.270Z,95403.53
2023-01-02T03:02:48.121Z,95401.16
2023-01-02T03:05:25.621Z,95405.88
2023-01-02T03:08:15.258Z,95394.78
2023-01-02T03:10:44.836Z,95398.81
2023-01-02T03:13:40.925Z,95405.22
2023-01-02T03:16:27.658Z,95402.03
2023-01-02T03:19:06.852Z,95393.59
2023-01-02T03:21:41.832Z,95388.56
2023-01-02T03:24:15.060Z,95396.25
2023-01-02T03:26:58.415Z,95404.53
2023-01-02T03:29:39.190Z,95403.94
2023-01-02T03:32:23.003Z,95407.97
2023-01-02T03:34:51.581Z,95405.22
2023-01-02T03:37:31.310Z,95414.00
2023-01-02T03:40:02.025Z,95411.81
2023-01-02T03:42:34.497Z,95416.34
2023-01-02T03:45:08.109Z,95425.56
2023-01-02T03:48:23.696Z,95427.03
2023-01-02T03:50:56.560Z,95429.34
2023-01-02T03:53:24.228Z,95438.19
2023-01-02T03:56:09.236Z,95440.13
2023-01-02T03:58:46.452Z,95433.34
2023-01-02T04:01:22.997Z,95435.72
2023-01-02T04:03:59.544Z,95446.03
2023-01-02T04:06:34.133Z,95438.25
2023-01-02T04:09:07.789Z,95432.81
2023-01-02T04:11:37.454Z,95439.44
2023-01-02T04:14:12.353Z,95444.81
2023-01-02T04:16:42.220Z,95439.72
2023-01-02T04:19:46.881Z,95445.81
2023-01-02T04:22:21.345Z,95448.00
2023-01-02T04:24:53.937Z,95441.78
2023-01-02T04:27:25.611Z,95447.63
2023-01-02T04:29:52.447Z,95451.94
2023-01-02T04:32:32.111Z,95455.34
2023-01-02T04:35:02.079Z,95462.28
2023-01-02T04:37:34.959Z,95463.22
2023-01-02T04:40:13.664Z,95460.16
2023-01-02T04:42:40.454Z,95454.47
2023-01-02T04:45:07.674Z,95458.91
2023-01-02T04:47:34.304Z,95458.41
2023-01-02T04:50:00.961Z,95453.69
2023-01-02T04:52:32.052Z,95456.25
2023-01-02T04:55:01.947Z,95453.09
2023-01-02T04:57:28.746Z,95450.44
2023-01-02T04:59:55.361Z,95453.09
2023-01-02T05:02:22.116Z,95457.28
2023-01-02T05:04:48.699Z,95450.69
2023-01-02T05:07:15.317Z,95449.47
2023-01-02T05:09:42.004Z,95458.78
2023-01-02T05:12:08.653Z,95445.81
2023-01-02T05:14:35.282Z,95449.47
2023-01-02T05:17:02.036Z,95452.47
2023-01-02T05:19:28.671Z,95450.22
2023-01-02T05:22:13.555Z,95452.53
2023-01-02T05:24:40.133Z,95449.34
2023-01-02T05:27:06.761Z,95449.34
2023-01-02T05:29:36.451Z,95447.78
2023-01-02T05:32:03.100Z,95446.91
2023-01-02T05:34:29.782Z,95440.91
2023-01-02T05:36:56.356Z,95442.88
2023-01-02T05:39:23.057Z,95447.47
2023-01-02T05:41:49.628Z,95434.38
2023-01-02T05:44:16.223Z,95440.19
2023-01-02T05:46:43.056Z,95441.56
2023-01-02T05:49:11.041Z,95437.53
2023-01-02T05:51:37.736Z,95447.03
2023-01-02T05:54:04.889Z,95456.00
2023-01-02T05:56:31.672Z,95447.53
2023-01-02T05:58:58.658Z,95452.56
2023-01-02T06:01:29.257Z,95462.63
2023-01-02T06:03:57.973Z,95467.72
2023-01-02T06:06:29.860Z,95463.69
2023-01-02T06:08:57.893Z,95467.94
2023-01-02T06:11:24.538Z,95464.72
2023-01-02T06:13:51.148Z,95465.41
2023-01-02T06:16:17.826Z,95481.59
2023-01-02T06:18:44.501Z,95486.13
2023-01-02T06:21:14.301Z,95483.69
2023-01-02T06:23:46.119Z,95480.13
2023-01-02T06:26:20.530Z,95486.41
2023-01-02T06:28:51.068Z,95489.53
2023-01-02T06:31:19.581Z,95493.56
2023-01-02T06:33:46.332Z,95481.44
2023-01-02T06:36:15.491Z,95486.88
2023-01-02T06:38:42.408Z,95482.38
2023-01-02T06:41:09.895Z,95478.16
2023-01-02T06:43:41.940Z,95483.53
2023-01-02T06:46:08.592Z,95487.63
2023-01-02T06:48:35.275Z,95484.97
2023-01-02T06:51:06.971Z,95478.00
2023-01-02T06:53:37.325Z,95484.78
2023-01-02T06:56:04.759Z,95484.16
2023-01-02T06:58:32.864Z,95486.22
2023-01-02T07:01:20.412Z,95480.59
2023-01-02T07:03:47.215Z,95488.97
2023-01-02T07:06:20.431Z,95486.31
2023-01-02T07:08:48.717Z,95492.06
2023-01-02T07:11:23.348Z,95487.66
2023-01-02T07:13:52.758Z,95496.16
2023-01-02T07:16:21.536Z,95489.31
2023-01-02T07:18:48.606Z,95486.75
2023-01-02T07:21:18.036Z,95493.72
2023-01-02T07:23:44.777Z,95490.06
2023-01-02T07:26:11.854Z,95490.84
2023-01-02T07:28:38.938Z,95490.47
2023-01-02T07:31:08.923Z,95493.44
2023-01-02T07:33:35.910Z,95491.09
2023-01-02T07:36:05.857Z,95502.72
2023-01-02T07:38:32.634Z,95498.38
2023-01-02T07:40:59.295Z,95499.59
2023-01-02T07:43:26.345Z,95497.19
2023-01-02T07:45:53.113Z,95490.00
2023-01-02T07:48:19.892Z,95490.53
2023-01-02T07:50:47.169Z,95493.72
2023-01-02T07:53:13.925Z,95491.28
2023-01-02T07:55:40.732Z,95493.97
2023-01-02T07:58:07.386Z,95506.44
2023-01-02T08:00:34.105Z,95506.34
2023-01-02T08:03:01.012Z,95507.06
2023-01-02T08:05:27.683Z,95498.88
2023-01-02T08:07:54.299Z,95503.81
2023-01-02T08:10:20.894Z,95499.28
2023-01-02T08:12:47.539Z,95497.63
2023-01-02T08:15:14.176Z,95493.63
2023-01-02T08:17:41.675Z,95494.22
2023-01-02T08:20:09.429Z,95495.38
2023-01-02T08:22:36.364Z,95495.91
2023-01-02T08:25:03.925Z,95487.28
2023-01-02T08:27:30.545Z,95497.34
2023-01-02T08:29:57.149Z,95480.63
2023-01-02T08:32:23.821Z,95488.13
2023-01-02T08:34:50.500Z,95485.44
2023-01-02T08:37:17.206Z,95484.00
2023-01-02T08:42:26.708Z,95484.72
2023-01-02T08:44:53.850Z,95487.06
2023-01-02T08:47:20.468Z,95482.31
2023-01-02T08:49:47.143Z,95473.75
2023-01-02T08:52:13.834Z,95480.75
2023-01-02T08:54:40.425Z,95470.19
2023-01-02T08:57:07.072Z,95475.00
2023-01-02T08:59:33.675Z,95471.75
2023-01-02T09:02:00.432Z,95470.06
2023-01-02T09:04:27.241Z,95457.19
2023-01-02T09:06:53.832Z,95453.94
2023-01-02T09:09:20.409Z,95448.78
2023-01-02T09:11:52.193Z,95440.31
2023-01-02T09:14:20.989Z,95441.88
2023-01-02T09:16:48.149Z,95442.78
2023-01-02T09:19:14.825Z,95435.81
2023-01-02T09:21:41.762Z,95433.41
2023-01-02T09:24:09.133Z,95436.78
2023-01-02T09:26:38.057Z,95438.31
2023-01-02T09:29:05.364Z,95433.22
2023-01-02T09:31:32.269Z,95421.41
2023-01-02T09:33:59.126Z,95415.06
2023-01-02T09:36:25.883Z,95419.50
2023-01-02T09:38:57.632Z,95412.31
2023-01-02T09:41:37.020Z,95408.72
2023-01-02T09:44:06.733Z,95399.13
2023-01-02T09:46:42.964Z,95397.75
2023-01-02T09:49:15.628Z,95399.19
2023-01-02T09:51:43.742Z,95389.66
2023-01-02T09:54:27.002Z,95395.38
2023-01-02T09:57:16.741Z,95392.06
2023-01-02T10:00:11.046Z,95384.06
2023-01-02T10:03:08.344Z,95387.72
2023-01-02T10:05:41.172Z,95382.59
2023-01-02T10:08:45.155Z,95379.50
2023-01-02T10:11:40.744Z,95378.38
2023-01-02T10:14:43.943Z,95370.22
2023-01-02T10:17:15.626Z,95366.97
2023-01-02T10:20:02.075Z,95354.31
2023-01-02T10:22:43.019Z,95357.53
2023-01-02T10:25:32.713Z,95347.19
2023-01-02T10:28:36.580Z,95350.88
2023-01-02T10:31:09.709Z,95352.94
2023-01-02T10:33:44.985Z,95349.66
2023-01-02T10:36:23.431Z,95351.06
2023-01-02T10:38:50.969Z,95348.28
2023-01-02T10:41:18.111Z,95346.06
2023-01-02T10:43:49.640Z,95344.94
2023-01-02T10:46:16.231Z,95340.88
2023-01-02T10:48:46.986Z,95338.03
2023-01-02T10:51:19.247Z,95333.75
2023-01-02T10:54:00.236Z,95329.06
2023-01-02T10:56:30.113Z,95320.88
2023-01-02T10:58:56.795Z,95313.31
2023-01-02T11:01:28.622Z,95312.38
2023-01-02T11:03:58.341Z,95307.97
2023-01-02T11:06:38.814Z,95304.16
2023-01-02T11:09:28.192Z,95308.56
2023-01-02T11:11:58.334Z,95305.19
2023-01-02T11:14:33.261Z,95292.44
2023-01-02T11:17:15.152Z,95298.50
2023-01-02T11:19:44.885Z,95290.84
2023-01-02T11:22:14.017Z,95289.34
2023-01-02T11:25:00.033Z,95278.66
2023-01-02T11:27:36.804Z,95281.91
2023-01-02T11:30:07.466Z,95274.59
2023-01-02T11:32:40.238Z,95271.16
2023-01-02T11:35:33.820Z,95275.06
2023-01-02T11:38:01.709Z,95272.56
2023-01-02T11:40:31.282Z,95268.44
2023-01-02T11:43:44.377Z,95265.63
2023-01-02T11:46:27.511Z,95261.72
2023-01-02T11:48:59.966Z,95258.66
2023-01-02T11:51:28.332Z,95253.59
2023-01-02T11:53:57.131Z,95239.66
2023-01-02T11:56:36.452Z,95251.72
2023-01-02T11:59:14.784Z,95243.06
2023-01-02T12:01:43.103Z,95240.59
2023-01-02T12:04:10.810Z,95242.03
2023-01-02T12:06:52.592Z,95235.75
2023-01-02T12:09:45.828Z,95237.97
2023-01-02T12:12:34.926Z,95236.16
2023-01-02T12:15:07.561Z,95229.81
2023-01-02T12:17:43.406Z,95229.50
2023-01-02T12:20:45.433Z,95228.53
2023-01-02T12:23:28.855Z,95225.91
2023-01-02T12:26:08.816Z,95228.53
2023-01-02T12:28:45.248Z,95223.03
2023-01-02T12:31:30.954Z,95219.25
2023-01-02T12:34:48.954Z,95217.16
2023-01-02T12:37:36.789Z,95209.69
2023-01-02T12:40:08.782Z,95211.41
2023-01-02T12:42:53.633Z,95198.25
2023-01-02T12:46:13.550Z,95201.41
2023-01-02T12:48:46.248Z,95200.25
2023-01-02T12:51:33.580Z,95195.59
2023-01-02T12:54:21.343Z,95195.00
2023-01-02T12:56:56.932Z,95193.94
2023-01-02T12:59:42.986Z,95192.53
2023-01-02T13:02:21.488Z,95200.34
2023-01-02T13:05:27.089Z,95198.56
2023-01-02T13:08:00.456Z,95198.38
2023-01-02T13:10:29.316Z,95193.94
2023-01-02T13:13:01.938Z,95185.88
2023-01-02T13:15:34.720Z,95194.06
2023-01-02T13:18:10.690Z,95204.31
2023-01-02T13:20:43.309Z,95204.91
2023-01-02T13:23:19.032Z,95202.69
2023-01-02T13:25:49.555Z,95204.09
2023-01-02T13:28:17.441Z,95202.69
2023-01-02T13:31:11.149Z,95200.19
2023-01-02T13:33:45.772Z,95199.41
2023-01-02T13:36:37.254Z,95195.09
2023-01-02T13:39:24.145Z,95195.09
2023-01-02T13:42:13.678Z,95197.22
2023-01-02T13:45:00.775Z,95189.13
2023-01-02T13:47:35.101Z,95182.91
2023-01-02T13:50:20.065Z,95186.44
2023-01-02T13:53:06.688Z,95188.22
2023-01-02T13:55:57.432Z,95189.78
2023-01-02T13:58:43.665Z,95190.63
2023-01-02T14:01:25.331Z,95181.63
2023-01-02T14:04:07.272Z,95185.47
2023-01-02T14:06:47.228Z,95181.38
2023-01-02T14:09:18.067Z,95174.66
2023-01-02T14:11:56.975Z,95175.41
2023-01-02T14:14:26.993Z,95179.13
2023-01-02T14:17:19.901Z,95178.22
2023-01-02T14:20:06.632Z,95182.34
2023-01-02T14:22:50.716Z,95187.22
2023-01-02T14:25:18.273Z,95179.53
2023-01-02T14:28:00.524Z,95183.41
2023-01-02T14:30:54.446Z,95181.13
2023-01-02T14:33:34.332Z,95193.41
2023-01-02T14:36:10.110Z,95187.41
2023-01-02T14:38:54.108Z,95188.22
2023-01-02T14:42:10.004Z,95190.31
2023-01-02T14:44:46.688Z,95191.41
2023-01-02T14:47:19.532Z,95185.75
2023-01-02T14:49:55.101Z,95188.94
2023-01-02T14:52:37.596Z,95187.38
2023-01-02T14:55:20.384Z,95187.09
2023-01-02T14:58:05.507Z,95192.31
2023-01-02T15:00:37.632Z,95191.50
2023-01-02T15:03:27.397Z,95182.56
2023-01-02T15:06:02.353Z,95186.69
2023-01-02T15:08:39.835Z,95184.66
2023-01-02T15:11:41.970Z,95187.47
2023-01-02T15:14:23.613Z,95185.28
2023-01-02T15:17:00.183Z,95186.09
2023-01-02T15:19:30.314Z,95188.59
2023-01-02T15:21:56.984Z,95194.72
2023-01-02T15:24:27.158Z,95184.19
2023-01-02T15:26:54.231Z,95182.16
2023-01-02T15:29:25.128Z,95184.34
2023-01-02T15:32:02.126Z,95177.78
2023-01-02T15:34:31.208Z,95187.34
2023-01-02T15:37:09.382Z,95191.13
2023-01-02T15:39:40.117Z,95197.25
2023-01-02T15:42:29.531Z,95196.63
2023-01-02T15:45:15.046Z,95199.75
2023-01-02T15:47:46.877Z,95193.47
2023-01-02T15:50:25.548Z,95200.66
2023-01-02T15:53:08.672Z,95206.03
2023-01-02T15:55:39.173Z,95197.25
2023-01-02T15:58:14.764Z,95199.47
2023-01-02T16:00:42.618Z,95201.94
2023-01-02T16:03:16.228Z,95203.06
2023-01-02T16:05:54.582Z,95206.78
2023-01-02T16:08:24.239Z,95198.16
2023-01-02T16:11:03.315Z,95194.22
2023-01-02T16:13:55.410Z,95204.28
2023-01-02T16:16:22.862Z,95197.53
2023-01-02T16:18:54.147Z,95205.22
2023-01-02T16:21:21.855Z,95204.91
2023-01-02T16:23:52.525Z,95198.31
2023-01-02T16:26:28.531Z,95210.75
2023-01-02T16:28:55.900Z,95206.19
2023-01-02T16:31:23.963Z,95198.97
2023-01-02T16:33:50.791Z,95204.56
2023-01-02T16:36:17.579Z,95204.91
2023-01-02T16:38:50.415Z,95206.63
2023-01-02T16:41:38.323Z,95211.03
2023-01-02T16:44:12.537Z,95210.22
2023-01-02T16:46:40.009Z,95203.63
2023-01-02T16:49:07.582Z,95207.41
2023-01-02T16:51:34.435Z,95211.19
2023-01-02T16:54:01.107Z,95212.13
2023-01-02T16:56:27.888Z,95207.41
2023-01-02T16:58:54.469Z,95201.28
2023-01-02T17:01:23.762Z,95199.25
2023-01-02T17:03:50.590Z,95200.50
2023-01-02T17:06:19.112Z,95208.34
2023-01-02T17:08:45.810Z,95213.19
2023-01-02T17:11:18.679Z,95198.47
2023-01-02T17:13:45.560Z,95210.38
2023-01-02T17:16:12.527Z,95209.28
2023-01-02T17:18:39.415Z,95217.75
2023-01-02T17:21:06.869Z,95211.63
2023-01-02T17:23:33.834Z,95209.28
2023-01-02T17:26:03.489Z,95210.06
2023-01-02T17:28:30.588Z,95217.91
2023-01-02T17:30:57.466Z,95216.19
2023-01-02T17:33:24.161Z,95216.03
2023-01-02T17:35:51.195Z,95216.16
2023-01-02T17:38:17.873Z,95213.78
2023-01-02T17:40:44.724Z,95220.88
2023-01-02T17:43:12.177Z,95217.25
2023-01-02T17:45:41.549Z,95226.53
2023-01-02T17:48:12.660Z,95228.06
2023-01-02T17:50:42.002Z,95222.91
2023-01-02T17:53:08.819Z,95218.97
2023-01-02T17:55:35.524Z,95232.00
2023-01-02T17:58:03.491Z,95226.81
2023-01-02T18:00:30.239Z,95218.19
2023-01-02T18:02:57.204Z,95224.28
2023-01-02T18:05:23.920Z,95225.25
2023-01-02T18:07:50.594Z,95232.75
2023-01-02T18:10:21.392Z,95228.97
2023-01-02T18:12:51.713Z,95222.84
2023-01-02T18:15:21.195Z,95231.34
2023-01-02T18:18:04.035Z,95227.22
2023-01-02T18:20:34.093Z,95229.09
2023-01-02T18:23:14.718Z,95229.88
2023-01-02T18:25:41.802Z,95232.88
2023-01-02T18:28:25.079Z,95233.94
2023-01-02T18:30:59.865Z,95227.00
2023-01-02T18:33:31.181Z,95237.59
2023-01-02T18:36:02.306Z,95232.38
2023-01-02T18:38:35.679Z,95236.94
2023-01-02T18:41:21.474Z,95233.47
2023-01-02T18:43:55.907Z,95234.00
2023-01-02T18:47:02.064Z,95228.47
2023-01-02T18:49:26.843Z,95227.38
2023-01-02T18:52:27.618Z,95236.25
2023-01-02T18:55:14.460Z,95236.38
2023-01-02T18:57:47.092Z,95232.97
2023-01-02T19:00:22.016Z,95231.09
2023-01-02T19:02:54.037Z,95240.53
2023-01-02T19:05:46.477Z,95233.53
2023-01-02T19:08:22.929Z,95235.47
2023-01-02T19:10:57.619Z,95237.50
2023-01-02T19:13:46.609Z,95231.22
2023-01-02T19:16:17.928Z,95224.00
2023-01-02T19:18:48.988Z,95231.66
2023-01-02T19:21:25.003Z,95221.50
2023-01-02T19:24:22.761Z,95224.47
2023-01-02T19:27:13.488Z,95224.63
2023-01-02T19:29:43.578Z,95219.31
2023-01-02T19:32:27.096Z,95217.84
2023-01-02T19:35:26.267Z,95224.88
2023-01-02T19:37:52.966Z,95225.56
2023-01-02T19:40:22.584Z,95222.88
2023-01-02T19:42:50.819Z,95221.50
2023-01-02T19:45:22.785Z,95224.16
2023-01-02T19:47:50.404Z,95224.63
2023-01-02T19:50:20.231Z,95223.06
2023-01-02T19:52:47.525Z,95220.22
2023-01-02T19:55:14.916Z,95219.75
2023-01-02T19:57:41.729Z,95221.34
2023-01-02T20:00:12.840Z,95218.00
2023-01-02T20:02:43.310Z,95220.78
2023-01-02T20:05:12.730Z,95224.13
2023-01-02T20:07:43.491Z,95222.25
2023-01-02T20:10:11.115Z,95215.81
2023-01-02T20:12:41.542Z,95214.72
2023-01-02T20:15:17.455Z,95224.06
2023-01-02T20:17:45.401Z,95211.09
2023-01-02T20:20:15.707Z,95220.63
2023-01-02T20:22:43.658Z,95220.00
2023-01-02T20:25:14.671Z,95215.47
2023-01-02T20:27:41.718Z,95212.00
2023-01-02T20:30:10.071Z,95218.44
2023-01-02T20:32:36.950Z,95216.09
2023-01-02T20:35:04.475Z,95211.81
2023-01-02T20:37:31.193Z,95216.03
2023-01-02T20:39:58.268Z,95216.19
2023-01-02T20:42:24.940Z,95218.53
2023-01-02T20:44:51.773Z,95218.34
2023-01-02T20:47:18.543Z,95217.56
2023-01-02T20:49:45.333Z,95223.22
2023-01-02T20:52:12.714Z,95220.22
2023-01-02T20:54:40.214Z,95219.25
2023-01-02T20:57:11.917Z,95218.97
2023-01-02T20:59:38.543Z,95229.44
2023-01-02T21:02:05.707Z,95220.97
2023-01-02T21:04:36.855Z,95227.09
2023-01-02T21:07:05.190Z,95220.00
2023-01-02T21:09:31.897Z,95230.00
2023-01-02T21:11:58.576Z,95228.31
2023-01-02T21:14:25.217Z,95211.72
2023-01-02T21:16:51.880Z,95226.63
2023-01-02T21:19:18.512Z,95217.78
2023-01-02T21:21:45.111Z,95225.75
2023-01-02T21:24:11.824Z,95216.50
2023-01-02T21:26:38.468Z,95209.97
2023-01-02T21:29:05.121Z,95207.63
2023-01-02T21:31:31.879Z,95210.69
2023-01-02T21:33:58.541Z,95211.66
2023-01-02T21:36:25.404Z,95208.41
2023-01-02T21:38:52.237Z,95216.69
2023-01-02T21:41:37.142Z,95206.81
2023-01-02T21:44:03.797Z,95212.94
2023-01-02T21:46:30.452Z,95212.16
2023-01-02T21:48:57.122Z,95214.19
2023-01-02T21:51:27.624Z,95213.72
2023-01-02T21:53:55.742Z,95204.44
2023-01-02T21:56:26.044Z,95210.56
2023-01-02T21:58:55.878Z,95203.25
2023-01-02T22:01:22.615Z,95213.72
2023-01-02T22:03:49.489Z,95210.66
2023-01-02T22:06:16.785Z,95206.47
2023-01-02T22:08:43.479Z,95211.00
2023-01-02T22:11:28.958Z,95202.22
2023-01-02T22:13:55.634Z,95202.06
2023-01-02T22:16:22.264Z,95192.53
2023-01-02T22:18:50.743Z,95192.22
2023-01-02T22:21:17.362Z,95189.28
2023-01-02T22:23:43.969Z,95184.56
2023-01-02T22:26:10.853Z,95182.38
2023-01-02T22:28:37.775Z,95184.06
2023-01-02T22:31:05.039Z,95182.38
2023-01-02T22:33:31.739Z,95182.38
2023-01-02T22:35:58.346Z,95173.91
2023-01-02T22:38:24.969Z,95178.16
2023-01-02T22:40:51.629Z,95178.16
2023-01-02T22:43:24.443Z,95174.81
2023-01-02T22:45:53.417Z,95176.06
2023-01-02T22:48:32.461Z,95178.88
2023-01-02T22:51:03.779Z,95168.41
2023-01-02T22:53:32.800Z,95178.88
2023-01-02T22:56:01.256Z,95175.91
2023-01-02T22:58:28.250Z,95167.13
2023-01-02T23:01:02.867Z,95163.94
2023-01-02T23:03:33.250Z,95160.53
2023-01-02T23:05:59.927Z,95157.88
2023-01-02T23:08:26.622Z,95162.41
2023-01-02T23:10:53.289Z,95159.44
2023-01-02T23:13:19.961Z,95161.94
2023-01-02T23:16:05.392Z,95158.16
2023-01-02T23:18:56.618Z,95153.09
2023-01-02T23:21:25.501Z,95157.34
2023-01-02T23:23:52.577Z,95159.91
2023-01-02T23:26:19.902Z,95152.66
2023-01-02T23:31:35.086Z,95154.25
2023-01-02T23:34:03.312Z,95155.03
2023-01-02T23:36:30.208Z,95150.31
2023-01-02T23:38:57.201Z,95148.28
2023-01-02T23:41:23.865Z,95146.69
2023-01-02T23:43:51.575Z,95152.03
2023-01-02T23:46:18.938Z,95148.41
2023-01-02T23:48:45.631Z,95139.63
2023-01-02T23:51:12.392Z,95146.81
2023-01-02T23:53:39.093Z,95139.44
2023-01-02T23:56:19.744Z,95143.72
2023-01-02T23:58:47.863Z,95135.81
